Time;durP1;ratioP1;P1;durP2;ratioP2;P2;SDS_P1;SDS_P2;PMS_P1;PMS_P2;Temp;Humidity;BMP_temperature;BMP_pressure;BME280_temperature;BME280_humidity;BME280_pressure;Samples;Min_cycle;Max_cycle;Signal;HPM_P1;HPM_P2
2021/06/20 00:00:23;;;;;;;1.07;0.20;;;;;;;22.48;58.15;100500.98;1746949;81;21063;-83
2021/06/20 00:02:51;;;;;;;1.72;0.23;;;;;;;22.46;58.15;100501.23;1748928;81;21625;-83
2021/06/20 00:05:22;;;;;;;1.95;0.40;;;;;;;22.45;58.28;100501.49;1744135;81;21026;-84
2021/06/20 00:07:50;;;;;;;2.00;0.68;;;;;;;22.42;58.33;100500.68;1738458;81;21002;-83
2021/06/20 00:10:23;;;;;;;1.65;0.40;;;;;;;22.33;58.64;100502.52;1738110;81;21505;-84
2021/06/20 00:12:49;;;;;;;3.98;0.33;;;;;;;22.31;58.70;100507.94;1747066;81;21555;-83
2021/06/20 00:15:20;;;;;;;4.05;0.50;;;;;;;22.27;58.87;100506.84;1722061;81;21138;-84
2021/06/20 00:17:47;;;;;;;6.35;0.50;;;;;;;22.22;59.08;100504.86;1726481;81;21002;-85
2021/06/20 00:20:18;;;;;;;2.95;0.37;;;;;;;22.19;59.19;100504.05;1735630;79;20999;-83
2021/06/20 00:22:45;;;;;;;5.87;0.57;;;;;;;22.22;59.15;100508.94;1744758;78;20979;-84
2021/06/20 00:25:14;;;;;;;9.93;0.65;;;;;;;22.16;59.34;100505.91;1739380;81;20983;-82
2021/06/20 00:27:44;;;;;;;1.52;0.57;;;;;;;22.09;59.55;100510.74;1745175;81;21047;-83
2021/06/20 00:30:18;;;;;;;4.22;1.52;;;;;;;22.01;59.90;100505.81;1742099;81;21081;-84
2021/06/20 00:32:46;;;;;;;4.08;0.95;;;;;;;21.96;59.96;100496.56;1747881;81;21089;-83
2021/06/20 00:35:26;;;;;;;0.85;0.30;;;;;;;21.91;60.09;100499.23;1732746;81;21479;-83
2021/06/20 00:37:53;;;;;;;4.90;0.50;;;;;;;21.90;60.21;100504.36;1749707;81;20994;-83
2021/06/20 00:40:20;;;;;;;3.62;0.50;;;;;;;21.57;60.16;100446.61;1713783;82;21036;-80
2021/06/20 00:42:50;;;;;;;1.65;0.55;;;;;;;21.88;60.26;100488.88;1703203;82;21117;-86
2021/06/20 00:45:21;;;;;;;2.70;0.30;;;;;;;21.83;60.42;100503.79;1733591;80;21141;-85
2021/06/20 00:47:47;;;;;;;3.72;0.30;;;;;;;21.79;60.45;100505.36;1743578;81;21003;-85
2021/06/20 00:50:15;;;;;;;5.03;1.15;;;;;;;21.73;60.63;100509.11;1734909;81;21087;-83
2021/06/20 00:52:43;;;;;;;6.00;0.40;;;;;;;21.69;60.83;100508.00;1746121;80;21002;-84
2021/06/20 00:55:51;;;;;;;;;;;;;;;;;;;;;
2021/06/20 00:59:20;;;;;;;;;;;;;;;;;;;;;
2021/06/20 01:01:53;;;;;;;4.62;0.30;;;;;;;21.66;60.92;100512.58;1576216;89;21029;-83
2021/06/20 01:04:43;;;;;;;2.50;0.50;;;;;;;21.57;61.19;100509.53;1680323;84;21022;-83
2021/06/20 01:07:18;;;;;;;6.00;0.35;;;;;;;21.52;61.24;100514.35;1665208;85;21615;-84
2021/06/20 01:09:45;;;;;;;1.95;0.40;;;;;;;21.52;61.31;100517.06;1659040;85;21010;-85
2021/06/20 01:12:15;;;;;;;4.72;0.33;;;;;;;21.53;61.36;100517.36;1676757;84;21034;-83
2021/06/20 01:14:43;;;;;;;3.25;0.33;;;;;;;21.52;61.35;100523.03;1692493;84;21143;-86
2021/06/20 01:17:28;;;;;;;0.72;0.30;;;;;;;21.47;61.61;100527.05;1677268;84;21049;-85
2021/06/20 01:19:55;;;;;;;1.85;0.30;;;;;;;21.43;61.59;100523.99;1644373;84;21109;-83
2021/06/20 01:22:27;;;;;;;2.15;0.30;;;;;;;21.38;61.72;100523.42;1668749;84;21509;-85
2021/06/20 01:25:07;;;;;;;3.70;0.40;;;;;;;21.38;61.79;100522.61;1687569;84;21046;-83
2021/06/20 01:27:56;;;;;;;2.15;0.40;;;;;;;21.39;61.73;100520.16;1675844;84;21121;-84
2021/06/20 01:30:30;;;;;;;2.83;0.40;;;;;;;21.36;61.80;100525.56;1686120;84;21019;-85
2021/06/20 01:32:58;;;;;;;1.40;0.30;;;;;;;21.30;61.99;100522.50;1613939;86;21025;-82
2021/06/20 01:35:26;;;;;;;9.73;0.40;;;;;;;21.25;62.13;100526.53;1641989;86;21034;-84
2021/06/20 01:37:58;;;;;;;1.32;0.20;;;;;;;21.25;62.11;100518.91;1637507;86;21672;-85
2021/06/20 01:40:25;;;;;;;5.72;0.40;;;;;;;21.27;62.13;100535.77;1654806;84;21099;-84
2021/06/20 01:42:55;;;;;;;5.10;0.75;;;;;;;21.28;61.98;100541.46;1678911;83;21037;-84
2021/06/20 01:45:23;;;;;;;18.40;1.25;;;;;;;21.29;61.91;100545.28;1698014;83;21456;-85
2021/06/20 01:47:53;;;;;;;3.10;0.30;;;;;;;21.28;61.88;100548.23;1693913;84;21226;-85
2021/06/20 01:50:20;;;;;;;1.72;0.30;;;;;;;21.27;61.91;100547.43;1695316;84;21022;-84
2021/06/20 01:53:02;;;;;;;7.20;0.30;;;;;;;21.27;61.93;100550.69;1695065;84;21674;-85
2021/06/20 01:55:31;;;;;;;12.80;0.72;;;;;;;21.27;61.89;100539.84;1649313;85;21703;-86
2021/06/20 01:57:57;;;;;;;2.67;0.42;;;;;;;21.32;61.76;100539.36;1662855;85;21078;-84
2021/06/20 02:00:23;;;;;;;0.30;0.20;;;;;;;21.35;61.73;100532.59;1666174;83;21117;-85
2021/06/20 02:02:49;;;;;;;3.05;0.23;;;;;;;21.34;61.78;100530.43;1713565;82;21114;-83
2021/06/20 02:05:23;;;;;;;2.70;0.40;;;;;;;21.34;61.71;100533.66;1713576;83;21011;-85
2021/06/20 02:07:49;;;;;;;1.95;0.33;;;;;;;21.34;61.67;100525.52;1701106;83;20977;-86
2021/06/20 02:10:15;;;;;;;4.15;0.40;;;;;;;21.36;61.59;100530.16;1714732;83;20991;-84
2021/06/20 02:12:48;;;;;;;4.50;0.60;;;;;;;21.42;61.40;100535.93;1702872;83;21037;-83
2021/06/20 02:18:40;;;;;;;1.45;0.57;;;;;;;21.47;61.20;100521.08;1702998;83;20982;-81
2021/06/20 02:21:06;;;;;;;;;;;;;;;21.48;61.03;100518.66;1707672;83;21013;-81
2021/06/20 02:23:32;;;;;;;2.58;0.30;;;;;;;21.54;60.89;100511.39;1696952;83;20105;-82
2021/06/20 02:25:58;;;;;;;2.42;0.47;;;;;;;21.56;60.84;100510.05;1704156;83;21054;-83
2021/06/20 02:28:24;;;;;;;;;;;;;;;21.69;60.39;100514.78;1702442;84;21037;-83
2021/06/20 02:30:50;;;;;;;2.60;0.50;;;;;;;21.70;59.86;100485.20;1692647;83;20183;-83
2021/06/20 02:33:16;;;;;;;2.40;0.55;;;;;;;21.93;59.53;100506.56;1703723;83;21002;-82
2021/06/20 02:35:42;;;;;;;2.77;0.30;;;;;;;22.01;59.33;100509.34;1697304;83;21325;-82
2021/06/20 02:38:08;;;;;;;;;;;;;;;22.10;59.11;100510.48;1680358;83;22260;-83
2021/06/20 02:40:34;;;;;;;0.98;0.20;;;;;;;22.18;58.81;100515.16;1690325;83;20179;-84
2021/06/20 02:43:01;;;;;;;2.62;0.55;;;;;;;22.18;58.96;100521.40;1700402;83;21113;-82
2021/06/20 02:45:27;;;;;;;3.50;0.55;;;;;;;22.31;58.79;100529.11;1695618;83;21080;-83
2021/06/20 02:47:53;;;;;;;12.53;0.60;;;;;;;22.46;58.77;100522.97;1694549;83;20989;-82
2021/06/20 02:50:20;;;;;;;11.85;0.78;;;;;;;22.57;58.62;100525.75;1671418;85;21511;-83
2021/06/20 02:52:47;;;;;;;3.67;0.45;;;;;;;22.67;58.34;100518.45;1687756;83;21054;-82
2021/06/20 02:55:16;;;;;;;2.25;0.25;;;;;;;22.80;57.66;100516.34;1697318;83;21059;-84
2021/06/20 02:57:42;;;;;;;1.50;0.50;;;;;;;22.91;57.14;100520.73;1688027;84;21505;-84
2021/06/20 03:00:10;;;;;;;1.65;0.40;;;;;;;23.04;56.90;100531.14;1697235;83;21166;-82
2021/06/20 03:06:02;;;;;;;2.40;0.53;;;;;;;23.12;56.19;100510.77;1621681;83;21016;-83
2021/06/20 03:08:30;;;;;;;0.60;0.23;;;;;;;22.92;56.32;100510.96;1690555;83;21084;-82
2021/06/20 03:10:56;;;;;;;1.47;0.50;;;;;;;22.72;56.89;100518.48;1693473;83;21044;-83
2021/06/20 03:13:24;;;;;;;9.58;0.78;;;;;;;22.50;57.71;100516.47;1693171;83;20970;-83
2021/06/20 03:15:52;;;;;;;3.80;0.40;;;;;;;22.33;58.17;100512.02;1690971;84;20998;-81
2021/06/20 03:18:19;;;;;;;4.58;0.40;;;;;;;22.26;58.84;100513.33;1686030;83;21616;-81
2021/06/20 03:20:45;;;;;;;3.37;0.82;;;;;;;22.25;58.68;100516.59;1685651;83;21588;-81
2021/06/20 03:23:11;;;;;;;8.78;0.90;;;;;;;22.16;58.78;100533.06;1704947;83;20981;-83
2021/06/20 03:25:40;;;;;;;3.85;0.50;;;;;;;22.12;58.71;100540.09;1717389;82;21036;-83
2021/06/20 03:28:08;;;;;;;2.08;0.75;;;;;;;22.00;59.03;100538.93;1733200;81;21027;-82
2021/06/20 03:30:35;;;;;;;3.40;0.88;;;;;;;21.92;59.62;100552.41;1716181;82;20983;-83
2021/06/20 03:33:02;;;;;;;3.55;0.70;;;;;;;21.92;59.50;100557.84;1721601;83;21118;-82
2021/06/20 03:35:31;;;;;;;2.35;0.68;;;;;;;21.92;59.69;100558.38;1657164;85;21505;-81
2021/06/20 03:37:59;;;;;;;1.92;0.88;;;;;;;21.90;59.71;100558.63;1656980;85;21600;-84
2021/06/20 03:40:26;;;;;;;4.40;0.68;;;;;;;21.86;59.71;100563.49;1634081;86;21136;-86
2021/06/20 03:42:52;;;;;;;2.80;0.68;;;;;;;21.86;59.54;100557.52;1642906;85;21047;-86
2021/06/20 03:45:20;;;;;;;2.47;0.30;;;;;;;21.88;59.85;100556.72;1658940;85;21125;-87
2021/06/20 03:47:47;;;;;;;8.13;1.17;;;;;;;21.86;59.47;100557.52;1664942;85;21093;-86
2021/06/20 03:50:13;;;;;;;;;;;;;;;21.82;59.36;100550.98;1667846;85;21511;-86
2021/06/20 03:52:40;;;;;;;7.93;0.77;;;;;;;21.77;59.26;100542.78;1660199;85;20209;-85
2021/06/20 03:55:09;;;;;;;3.60;0.65;;;;;;;21.66;59.94;100537.83;1653240;85;21022;-86
2021/06/20 03:57:36;;;;;;;1.47;0.55;;;;;;;21.66;59.99;100524.78;1666960;85;21136;-86
2021/06/20 04:00:08;;;;;;;4.53;0.60;;;;;;;21.70;60.14;100525.37;1673494;85;21051;-86
2021/06/20 04:02:36;;;;;;;2.83;0.60;;;;;;;21.73;59.69;100519.97;1643124;86;21526;-86
2021/06/20 04:05:07;;;;;;;1.85;0.30;;;;;;;21.71;59.58;100510.72;1678176;84;21564;-86
2021/06/20 04:07:35;;;;;;;8.28;0.85;;;;;;;21.71;60.30;100508.02;1679077;84;21140;-86
2021/06/20 04:10:03;;;;;;;2.95;1.05;;;;;;;21.73;59.87;100500.98;1676768;84;21394;-85
2021/06/20 04:12:33;;;;;;;1.87;0.30;;;;;;;21.72;60.51;100511.56;1672926;84;20981;-86
2021/06/20 04:15:01;;;;;;;3.80;0.70;;;;;;;21.72;60.78;100525.13;1682129;84;21545;-88
2021/06/20 04:17:29;;;;;;;1.32;0.72;;;;;;;21.74;60.36;100527.05;1683533;83;21122;-85
2021/06/20 04:19:57;;;;;;;0.95;0.42;;;;;;;21.82;60.04;100527.10;1702553;83;21630;-86
2021/06/20 04:22:25;;;;;;;1.40;0.88;;;;;;;21.87;60.25;100512.20;1715579;81;21017;-86
2021/06/20 04:24:54;;;;;;;2.12;0.40;;;;;;;21.86;59.90;100520.89;1751630;81;20957;-86
2021/06/20 04:27:22;;;;;;;1.80;0.60;;;;;;;21.84;59.45;100516.81;1735320;81;21049;-88
2021/06/20 04:29:53;;;;;;;4.28;1.05;;;;;;;21.85;59.39;100511.64;1722754;82;20966;-86
2021/06/20 04:32:22;;;;;;;0.82;0.23;;;;;;;21.85;59.89;100508.93;1727329;80;21056;-85
2021/06/20 04:34:50;;;;;;;2.47;0.50;;;;;;;21.82;60.22;100498.06;1719701;82;21025;-86
2021/06/20 04:37:16;;;;;;;6.50;1.30;;;;;;;21.81;59.78;100502.39;1721327;82;21041;-86
2021/06/20 04:39:44;;;;;;;2.80;0.35;;;;;;;21.90;60.23;100497.58;1663535;84;21089;-87
2021/06/20 04:42:11;;;;;;;2.08;0.20;;;;;;;22.05;59.82;100490.09;1665045;84;21038;-86
2021/06/20 04:44:43;;;;;;;0.47;0.42;;;;;;;22.16;59.35;100486.36;1698947;83;21722;-85
2021/06/20 04:47:16;;;;;;;1.95;0.25;;;;;;;22.21;58.79;100484.75;1627972;86;21085;-85
2021/06/20 04:49:43;;;;;;;4.80;0.47;;;;;;;22.22;58.81;100485.86;1676398;84;20990;-84
2021/06/20 04:52:12;;;;;;;3.47;0.40;;;;;;;22.27;58.78;100490.55;1681223;84;20978;-83
2021/06/20 04:55:13;;;;;;;1.05;0.40;;;;;;;22.33;58.18;100480.80;1633145;86;21053;-85
2021/06/20 04:57:16;;;;;;;4.37;0.40;;;;;;;22.39;57.28;100495.77;1633280;86;21127;-85
2021/06/20 04:59:42;;;;;;;4.60;0.33;;;;;;;22.40;57.13;100486.55;1681430;85;21489;-84
2021/06/20 05:02:13;;;;;;;0.70;0.20;;;;;;;22.38;56.37;100491.40;1675349;83;21157;-87
2021/06/20 05:04:38;;;;;;;3.30;0.25;;;;;;;22.35;56.50;100492.20;1666165;85;22312;-85
2021/06/20 05:07:10;;;;;;;1.55;0.45;;;;;;;22.32;56.06;100499.54;1671242;85;21093;-85
2021/06/20 05:09:40;;;;;;;3.05;0.30;;;;;;;22.34;56.28;100502.00;1665726;85;20999;-85
2021/06/20 05:12:09;;;;;;;4.47;0.30;;;;;;;22.39;56.15;100501.20;1666769;82;20991;-85
2021/06/20 05:14:39;;;;;;;5.30;0.42;;;;;;;22.45;55.65;100496.90;1625340;84;20959;-85
2021/06/20 05:17:06;;;;;;;1.52;0.23;;;;;;;22.75;55.19;100489.95;1653829;85;21117;-85
2021/06/20 05:19:32;;;;;;;0.70;0.45;;;;;;;23.22;54.18;100490.39;1682986;84;21066;-84
2021/06/20 05:22:03;;;;;;;2.65;0.40;;;;;;;23.61;52.95;100479.02;1664782;85;20969;-84
2021/06/20 05:24:30;;;;;;;3.70;0.40;;;;;;;23.88;53.01;100468.42;1684949;84;21053;-89
2021/06/20 05:27:03;;;;;;;1.05;0.30;;;;;;;24.06;52.18;100469.21;1687068;84;21057;-86
2021/06/20 05:29:29;;;;;;;1.52;0.30;;;;;;;24.10;51.33;100466.75;1624087;87;21050;-85
2021/06/20 05:31:56;;;;;;;1.22;0.30;;;;;;;24.20;51.32;100472.16;1642278;85;21030;-87
2021/06/20 05:34:22;;;;;;;1.80;0.40;;;;;;;24.34;51.10;100475.14;1661686;85;20986;-88
2021/06/20 05:36:50;;;;;;;1.98;0.30;;;;;;;24.63;51.35;100484.86;1680178;84;21043;-87
2021/06/20 05:39:18;;;;;;;2.62;0.20;;;;;;;25.19;49.08;100479.67;1695160;83;21099;-82
2021/06/20 05:41:45;;;;;;;2.47;0.45;;;;;;;25.65;47.77;100481.28;1671829;84;21086;-82
2021/06/20 05:44:12;;;;;;;2.30;0.40;;;;;;;26.09;46.87;100477.64;1672546;82;21669;-80
2021/06/20 05:47:23;;;;;;;;;;;;;;;;;;;;;
2021/06/20 05:49:53;;;;;;;1.25;0.10;;;;;;;26.54;45.80;100475.50;1467297;93;21177;-84
2021/06/20 05:52:32;;;;;;;0.82;0.20;;;;;;;26.89;45.31;100470.69;1559385;90;21123;-85
2021/06/20 05:57:48;;;;;;;2.72;0.33;;;;;;;27.24;42.80;100473.20;1521019;91;22002;-85
2021/06/20 06:00:16;;;;;;;2.33;0.20;;;;;;;27.27;42.27;100463.87;1590273;85;21228;-87
2021/06/20 06:02:43;;;;;;;3.00;0.10;;;;;;;27.31;41.93;100473.14;1673128;84;21060;-87
2021/06/20 06:05:12;;;;;;;2.15;0.40;;;;;;;27.27;42.11;100477.55;1703003;83;21068;-88
2021/06/20 06:07:41;;;;;;;2.52;0.20;;;;;;;27.13;42.26;100479.40;1702946;83;21192;-88
2021/06/20 06:10:07;;;;;;;1.85;0.20;;;;;;;26.96;42.36;100481.28;1699506;83;21128;-85
2021/06/20 06:12:40;;;;;;;1.85;0.10;;;;;;;26.88;42.49;100480.55;1700511;80;21309;-84
2021/06/20 06:15:10;;;;;;;;;;;;;;;26.86;42.55;100482.77;1667351;83;21064;-87
2021/06/20 06:17:38;;;;;;;2.90;0.42;;;;;;;26.90;42.54;100486.01;1702512;83;20162;-85
2021/06/20 06:20:06;;;;;;;0.30;0.10;;;;;;;26.98;41.88;100487.27;1700990;83;21775;-83
2021/06/20 06:22:35;;;;;;;1.02;0.10;;;;;;;27.12;41.44;100496.34;1705549;80;21050;-85
2021/06/20 06:25:01;;;;;;;5.70;0.30;;;;;;;27.38;41.20;100493.27;1694820;83;21591;-82
2021/06/20 06:27:46;;;;;;;2.02;0.10;;;;;;;27.61;40.84;100492.09;1698961;83;21113;-88
2021/06/20 06:30:14;;;;;;;2.15;0.20;;;;;;;27.71;40.98;100472.21;1709587;83;21018;-82
2021/06/20 06:35:57;;;;;;;;;;;;;;;27.36;41.33;100493.56;1726366;80;22909;-84
2021/06/20 06:38:24;;;;;;;1.35;0.30;;;;;;;26.94;41.58;100490.34;1746000;81;20127;-81
2021/06/20 06:43:54;;;;;;;0.75;0.20;;;;;;;26.15;43.70;100488.77;1852076;75;22837;-85
2021/06/20 06:46:20;;;;;;;6.83;0.62;;;;;;;25.69;44.13;100458.32;1782380;78;21017;-84
2021/06/20 06:48:47;;;;;;;2.60;0.17;;;;;;;25.56;45.02;100484.34;1784022;79;21035;-81
2021/06/20 06:51:13;;;;;;;6.92;0.20;;;;;;;25.31;45.64;100492.98;1788702;79;21075;-80
2021/06/20 06:53:40;;;;;;;1.72;0.10;;;;;;;25.13;46.11;100492.25;1779526;79;21595;-85
2021/06/20 06:56:07;;;;;;;0.53;0.10;;;;;;;25.01;46.77;100491.23;1775783;80;21045;-82
2021/06/20 06:58:34;;;;;;;2.00;0.30;;;;;;;24.92;47.09;100488.83;1771084;80;21101;-82
2021/06/20 07:01:01;;;;;;;1.77;0.10;;;;;;;24.82;47.30;100482.88;1750448;79;21518;-83
2021/06/20 07:03:26;;;;;;;2.05;0.10;;;;;;;24.71;47.58;100471.76;1722115;81;21081;-81
2021/06/20 07:05:54;;;;;;;5.75;0.20;;;;;;;24.63;48.08;100469.07;1727120;80;21013;-81
2021/06/20 07:08:20;;;;;;;1.10;0.20;;;;;;;24.54;48.31;100481.08;1727579;81;21040;-80
2021/06/20 07:10:46;;;;;;;1.57;0.20;;;;;;;24.46;48.47;100470.19;1729882;81;21632;-80
2021/06/20 07:13:12;;;;;;;2.45;0.20;;;;;;;24.43;48.96;100461.22;1762065;79;22037;-81
2021/06/20 07:15:44;;;;;;;1.00;0.10;;;;;;;24.44;49.09;100464.75;1756086;79;21114;-86
2021/06/20 07:18:14;;;;;;;1.80;0.20;;;;;;;24.42;49.22;100471.84;1736385;80;21099;-85
2021/06/20 07:20:43;;;;;;;4.45;0.20;;;;;;;24.41;49.24;100455.77;1736327;79;21044;-90
2021/06/20 07:23:13;;;;;;;2.10;0.20;;;;;;;24.48;49.24;100471.27;1750091;79;21123;-82
2021/06/20 07:25:40;;;;;;;1.07;0.30;;;;;;;24.68;48.70;100457.60;1750952;80;21050;-86
2021/06/20 07:28:09;;;;;;;5.67;0.20;;;;;;;24.97;48.41;100469.17;1745649;80;20998;-84
2021/06/20 07:30:40;;;;;;;1.92;0.15;;;;;;;25.32;47.62;100472.00;1746000;80;21086;-86
2021/06/20 07:33:09;;;;;;;1.02;0.20;;;;;;;25.62;46.73;100463.56;1742837;78;21191;-86
2021/06/20 07:35:35;;;;;;;7.62;0.30;;;;;;;25.83;45.67;100462.83;1752280;80;21114;-86
2021/06/20 07:38:02;;;;;;;0.45;0.10;;;;;;;25.99;45.77;100455.88;1748182;80;21066;-84
2021/06/20 07:40:29;;;;;;;2.17;0.25;;;;;;;26.14;44.76;100468.56;1754305;76;20987;-87
2021/06/20 07:42:57;;;;;;;1.02;0.20;;;;;;;26.24;44.19;100473.94;1757194;79;21198;-84
2021/06/20 07:45:23;;;;;;;1.42;0.28;;;;;;;26.35;43.31;100483.65;1738693;76;21002;-84
2021/06/20 07:47:52;;;;;;;3.98;0.40;;;;;;;26.43;43.46;100483.56;1753817;79;21004;-83
2021/06/20 07:50:19;;;;;;;0.30;0.10;;;;;;;26.52;42.59;100466.78;1742413;80;21023;-79
2021/06/20 07:52:45;;;;;;;1.20;0.10;;;;;;;26.61;41.22;100477.33;1754124;80;21138;-86
2021/06/20 07:55:12;;;;;;;1.90;0.20;;;;;;;26.75;40.92;100486.21;1757368;78;21117;-84
2021/06/20 07:57:39;;;;;;;3.47;0.30;;;;;;;26.78;40.59;100481.51;1730948;82;21079;-86
2021/06/20 08:00:09;;;;;;;2.70;0.20;;;;;;;26.75;40.12;100468.44;1756626;80;21585;-84
2021/06/20 08:02:38;;;;;;;0.85;0.17;;;;;;;26.73;40.29;100460.53;1727252;81;21023;-86
2021/06/20 08:05:08;;;;;;;0.72;0.10;;;;;;;26.73;39.95;100461.06;1727959;81;21043;-86
2021/06/20 08:07:36;;;;;;;1.30;0.10;;;;;;;26.73;39.69;100464.63;1715294;81;21054;-87
2021/06/20 08:10:04;;;;;;;2.75;0.10;;;;;;;26.63;39.20;100446.97;1726737;81;21599;-85
2021/06/20 08:12:32;;;;;;;5.47;0.20;;;;;;;26.55;39.63;100438.04;1730118;80;21078;-85
2021/06/20 08:14:59;;;;;;;4.42;0.15;;;;;;;26.50;40.17;100432.06;1738519;81;21426;-86
2021/06/20 08:17:27;;;;;;;2.62;0.15;;;;;;;26.48;39.77;100433.48;1716367;81;21102;-87
2021/06/20 08:19:53;;;;;;;5.60;0.40;;;;;;;26.40;39.89;100433.58;1725650;81;21488;-88
2021/06/20 08:22:19;;;;;;;5.50;0.30;;;;;;;26.35;39.52;100430.89;1724884;81;21123;-87
2021/06/20 08:24:49;;;;;;;3.47;0.33;;;;;;;26.33;40.08;100402.48;1749792;80;21040;-88
2021/06/20 08:27:15;;;;;;;2.85;0.10;;;;;;;26.43;40.44;100402.94;1742078;80;21061;-85
2021/06/20 08:29:41;;;;;;;6.55;0.37;;;;;;;26.51;40.40;100402.27;1745784;80;21125;-85
2021/06/20 08:32:07;;;;;;;4.40;0.20;;;;;;;26.54;40.30;100405.80;1706073;82;21056;-90
2021/06/20 08:34:34;;;;;;;2.50;0.10;;;;;;;26.53;40.36;100412.92;1683201;83;21095;-86
2021/06/20 08:37:04;;;;;;;1.55;0.10;;;;;;;26.48;40.63;100408.88;1689789;83;21001;-88
2021/06/20 08:39:31;;;;;;;1.85;0.20;;;;;;;26.46;40.47;100398.80;1694338;83;21067;-85
2021/06/20 08:41:57;;;;;;;6.08;0.15;;;;;;;26.51;40.55;100421.41;1689442;83;21031;-86
2021/06/20 08:44:30;;;;;;;0.57;0.20;;;;;;;26.56;39.72;100410.95;1706731;82;21033;-87
2021/06/20 08:47:01;;;;;;;4.67;0.10;;;;;;;26.60;39.78;100397.01;1696111;83;21561;-85
2021/06/20 08:49:29;;;;;;;4.53;0.13;;;;;;;26.71;39.88;100392.19;1689985;83;21011;-85
2021/06/20 08:51:59;;;;;;;3.10;0.37;;;;;;;26.85;39.07;100391.72;1687721;83;21134;-86
2021/06/20 08:54:28;;;;;;;4.55;0.10;;;;;;;26.98;38.79;100398.38;1683830;83;21028;-86
2021/06/20 08:56:54;;;;;;;4.50;0.62;;;;;;;27.06;38.92;100396.32;1712000;82;21042;-88
2021/06/20 08:59:24;;;;;;;2.02;0.20;;;;;;;27.12;38.60;100395.12;1701495;82;21150;-88
2021/06/20 09:01:54;;;;;;;5.15;0.13;;;;;;;27.11;38.49;100394.08;1692970;82;21018;-86
2021/06/20 09:04:32;;;;;;;2.37;0.10;;;;;;;27.11;38.12;100391.34;1701186;83;21023;-88
2021/06/20 09:07:01;;;;;;;1.98;0.20;;;;;;;27.11;38.56;100404.45;1680205;83;21513;-86
2021/06/20 09:09:34;;;;;;;4.65;0.10;;;;;;;27.12;38.58;100396.48;1665330;81;21019;-86
2021/06/20 09:12:13;;;;;;;3.52;0.28;;;;;;;27.09;38.78;100375.78;1716028;80;21094;-88
2021/06/20 09:14:50;;;;;;;3.35;0.20;;;;;;;27.11;38.97;100381.20;1743604;80;20994;-87
2021/06/20 09:17:29;;;;;;;1.65;0.40;;;;;;;27.16;38.54;100392.07;1741211;80;21588;-85
2021/06/20 09:19:59;;;;;;;2.08;0.10;;;;;;;27.24;38.52;100370.05;1739410;80;21147;-86
2021/06/20 09:22:28;;;;;;;3.15;0.10;;;;;;;27.31;37.45;100393.78;1739059;80;21460;-85
2021/06/20 09:25:08;;;;;;;2.72;0.10;;;;;;;27.38;37.91;100373.66;1731966;81;21034;-87
2021/06/20 09:27:37;;;;;;;2.90;0.10;;;;;;;27.41;37.46;100378.27;1725002;81;21136;-85
2021/06/20 09:30:11;;;;;;;4.62;0.30;;;;;;;27.44;37.72;100366.73;1730416;81;21108;-86
2021/06/20 09:32:56;;;;;;;7.08;0.20;;;;;;;27.50;36.86;100355.94;1735527;81;21130;-87
2021/06/20 09:35:25;;;;;;;4.33;0.23;;;;;;;27.54;35.81;100361.09;1727422;81;20966;-86
2021/06/20 09:37:56;;;;;;;3.40;0.10;;;;;;;27.61;36.41;100362.85;1736052;81;21001;-85
2021/06/20 09:40:29;;;;;;;0.98;0.08;;;;;;;27.68;35.98;100387.91;1719749;81;21018;-85
2021/06/20 09:42:57;;;;;;;2.83;0.10;;;;;;;27.75;36.16;100367.00;1725293;81;21332;-85
2021/06/20 09:45:32;;;;;;;4.67;0.10;;;;;;;27.75;36.54;100351.37;1691030;82;21010;-86
2021/06/20 09:47:59;;;;;;;0.68;0.10;;;;;;;27.80;36.86;100341.42;1681205;84;21065;-85
2021/06/20 09:50:38;;;;;;;2.02;0.13;;;;;;;27.88;36.82;100350.32;1672715;84;21062;-85
2021/06/20 09:53:06;;;;;;;4.30;0.20;;;;;;;27.96;36.51;100342.22;1679346;83;21081;-85
2021/06/20 09:55:35;;;;;;;5.37;0.00;;;;;;;28.05;35.30;100344.23;1677846;83;21022;-84
2021/06/20 09:58:02;;;;;;;0.62;0.10;;;;;;;28.15;34.51;100344.03;1656050;85;21142;-85
2021/06/20 10:00:43;;;;;;;0.88;0.10;;;;;;;28.24;34.54;100340.03;1683657;83;21120;-84
2021/06/20 10:03:24;;;;;;;1.62;0.10;;;;;;;28.32;34.35;100362.59;1658749;84;21260;-86
2021/06/20 10:05:53;;;;;;;0.25;0.10;;;;;;;28.39;33.58;100358.87;1684952;84;21048;-86
2021/06/20 10:08:20;;;;;;;2.05;0.20;;;;;;;28.43;33.45;100331.09;1662676;84;21263;-84
2021/06/20 10:10:46;;;;;;;2.27;0.10;;;;;;;28.45;34.07;100354.09;1668590;81;21019;-79
2021/06/20 10:13:14;;;;;;;4.22;0.10;;;;;;;28.43;34.36;100327.55;1711247;81;21023;-81
2021/06/20 10:15:42;;;;;;;0.70;0.10;;;;;;;28.42;34.23;100330.03;1688451;81;20991;-84
2021/06/20 10:18:15;;;;;;;2.20;0.20;;;;;;;28.48;33.22;100329.61;1711547;83;21034;-86
2021/06/20 10:20:43;;;;;;;0.68;0.10;;;;;;;28.54;34.01;100338.00;1686067;83;21547;-88
2021/06/20 10:23:23;;;;;;;2.52;0.10;;;;;;;28.57;32.87;100333.81;1652111;84;21268;-86
2021/06/20 10:25:49;;;;;;;4.40;0.33;;;;;;;28.57;32.29;100345.36;1688522;84;21034;-87
2021/06/20 10:28:22;;;;;;;3.30;0.28;;;;;;;28.56;32.34;100337.70;1677415;83;21038;-87
2021/06/20 10:30:49;;;;;;;2.83;0.10;;;;;;;28.59;32.88;100319.80;1676920;84;21097;-88
2021/06/20 10:33:26;;;;;;;2.02;0.10;;;;;;;28.66;32.52;100311.97;1685547;84;21515;-85
2021/06/20 10:36:06;;;;;;;1.85;0.25;;;;;;;28.75;32.47;100329.30;1680509;84;21498;-87
2021/06/20 10:38:45;;;;;;;1.75;0.08;;;;;;;28.80;32.39;100311.89;1678757;84;21077;-86
2021/06/20 10:41:29;;;;;;;1.30;0.10;;;;;;;28.83;31.51;100335.97;1684477;84;21142;-86
2021/06/20 10:44:01;;;;;;;1.17;0.10;;;;;;;28.82;30.98;100335.17;1691979;82;21058;-86
2021/06/20 10:46:29;;;;;;;4.80;0.13;;;;;;;28.79;31.46;100304.23;1733222;81;21117;-87
2021/06/20 10:48:57;;;;;;;2.85;0.10;;;;;;;28.81;31.46;100297.87;1741492;81;21036;-86
2021/06/20 10:51:25;;;;;;;3.17;0.00;;;;;;;28.86;31.38;100312.05;1739696;81;21539;-88
2021/06/20 10:53:52;;;;;;;6.22;0.25;;;;;;;28.89;30.86;100313.58;1723582;81;21041;-86
2021/06/20 10:56:23;;;;;;;2.08;0.42;;;;;;;28.92;31.27;100312.96;1714359;82;21041;-85
2021/06/20 10:58:52;;;;;;;1.65;0.10;;;;;;;28.92;30.50;100315.70;1688499;82;21119;-85
2021/06/20 11:01:25;;;;;;;0.88;0.10;;;;;;;28.92;29.85;100329.98;1671693;84;21535;-86
2021/06/20 11:03:57;;;;;;;6.95;0.20;;;;;;;28.93;29.15;100327.48;1687755;82;21527;-87
2021/06/20 11:06:27;;;;;;;0.33;0.10;;;;;;;28.89;29.50;100288.88;1697353;82;21041;-86
2021/06/20 11:09:01;;;;;;;2.05;0.00;;;;;;;28.85;29.83;100283.78;1694955;82;22341;-87
2021/06/20 11:11:34;;;;;;;2.95;0.10;;;;;;;28.86;29.77;100289.53;1704446;82;21038;-86
2021/06/20 11:14:09;;;;;;;4.42;0.20;;;;;;;28.88;29.84;100271.39;1728585;82;21124;-86
2021/06/20 11:16:39;;;;;;;0.62;0.00;;;;;;;28.93;29.13;100295.93;1722137;82;21519;-86
2021/06/20 11:19:29;;;;;;;0.55;0.10;;;;;;;28.95;29.12;100308.77;1710469;82;21134;-85
2021/06/20 11:22:05;;;;;;;2.60;0.15;;;;;;;28.95;28.93;100288.20;1717875;82;21125;-84
2021/06/20 11:24:39;;;;;;;2.20;0.10;;;;;;;28.95;28.89;100303.85;1687581;82;21007;-84
2021/06/20 11:27:15;;;;;;;2.15;0.00;;;;;;;28.98;29.02;100274.43;1717604;82;21166;-85
2021/06/20 11:29:51;;;;;;;4.15;0.30;;;;;;;29.01;29.34;100284.76;1706162;82;21108;-86
2021/06/20 11:32:34;;;;;;;2.10;0.15;;;;;;;29.04;30.23;100286.31;1699361;82;21101;-88
2021/06/20 11:35:05;;;;;;;3.05;0.10;;;;;;;29.03;30.14;100312.72;1704975;83;21055;-86
2021/06/20 11:37:49;;;;;;;1.60;0.10;;;;;;;29.04;29.63;100307.47;1738804;82;21049;-86
2021/06/20 11:40:24;;;;;;;4.95;0.40;;;;;;;29.03;30.14;100278.42;1745511;82;21049;-86
2021/06/20 11:42:56;;;;;;;0.60;0.10;;;;;;;29.05;30.30;100288.52;1746064;81;21023;-89
2021/06/20 11:45:33;;;;;;;3.22;0.10;;;;;;;29.10;30.25;100327.62;1738620;81;21031;-87
2021/06/20 11:48:03;;;;;;;0.57;0.00;;;;;;;29.15;30.52;100321.78;1685684;82;21114;-85
2021/06/20 11:50:33;;;;;;;0.70;0.30;;;;;;;29.15;30.43;100308.86;1744414;82;21074;-88
2021/06/20 11:53:05;;;;;;;10.82;0.35;;;;;;;29.17;30.85;100303.86;1751201;81;21010;-88
2021/06/20 11:55:43;;;;;;;2.77;0.10;;;;;;;29.17;30.96;100306.61;1729146;82;21655;-87
2021/06/20 11:58:15;;;;;;;1.72;0.10;;;;;;;29.24;30.64;100282.27;1712413;82;21056;-86